sensor_id;sensor_type;location;lat;lon;timestamp;P1;durP1;ratioP1;P2;durP2;ratioP2
13421;SDS011;6782;55.904;13.396;2023-04-16T00:01:59;13.47;;;12.17;;
13421;SDS011;6782;55.904;13.396;2023-04-16T00:04:27;12.83;;;11.53;;
13421;SDS011;6782;55.904;13.396;2023-04-16T00:06:54;12.77;;;11.50;;
13421;SDS011;6782;55.904;13.396;2023-04-16T00:09:21;13.33;;;11.93;;
13421;SDS011;6782;55.904;13.396;2023-04-16T00:11:50;12.80;;;11.60;;
13421;SDS011;6782;55.904;13.396;2023-04-16T00:14:16;13.27;;;11.87;;
13421;SDS011;6782;55.904;13.396;2023-04-16T00:16:43;12.60;;;11.17;;
13421;SDS011;6782;55.904;13.396;2023-04-16T00:19:11;13.03;;;11.50;;
13421;SDS011;6782;55.904;13.396;2023-04-16T00:21:38;12.30;;;11.10;;
13421;SDS011;6782;55.904;13.396;2023-04-16T00:24:05;13.17;;;11.80;;
13421;SDS011;6782;55.904;13.396;2023-04-16T00:26:32;15.23;;;12.37;;
13421;SDS011;6782;55.904;13.396;2023-04-16T00:29:01;13.43;;;11.93;;
13421;SDS011;6782;55.904;13.396;2023-04-16T00:31:28;12.83;;;11.53;;
13421;SDS011;6782;55.904;13.396;2023-04-16T00:33:55;14.20;;;11.40;;
13421;SDS011;6782;55.904;13.396;2023-04-16T00:36:22;13.23;;;11.90;;
13421;SDS011;6782;55.904;13.396;2023-04-16T00:38:49;14.27;;;12.17;;
13421;SDS011;6782;55.904;13.396;2023-04-16T00:41:16;12.40;;;11.20;;
13421;SDS011;6782;55.904;13.396;2023-04-16T00:43:43;14.17;;;11.63;;
13421;SDS011;6782;55.904;13.396;2023-04-16T00:46:12;14.33;;;11.73;;
13421;SDS011;6782;55.904;13.396;2023-04-16T00:48:39;12.87;;;11.53;;
13421;SDS011;6782;55.904;13.396;2023-04-16T00:51:06;14.47;;;12.33;;
13421;SDS011;6782;55.904;13.396;2023-04-16T00:53:33;14.13;;;11.60;;
13421;SDS011;6782;55.904;13.396;2023-04-16T00:56:01;12.10;;;10.90;;
13421;SDS011;6782;55.904;13.396;2023-04-16T00:58:28;13.33;;;11.53;;
13421;SDS011;6782;55.904;13.396;2023-04-16T01:00:55;15.37;;;12.67;;
13421;SDS011;6782;55.904;13.396;2023-04-16T01:03:23;12.63;;;11.43;;
13421;SDS011;6782;55.904;13.396;2023-04-16T01:05:56;12.53;;;11.30;;
13421;SDS011;6782;55.904;13.396;2023-04-16T01:08:23;13.93;;;11.30;;
13421;SDS011;6782;55.904;13.396;2023-04-16T01:10:51;12.93;;;11.73;;
13421;SDS011;6782;55.904;13.396;2023-04-16T01:13:17;13.10;;;11.73;;
13421;SDS011;6782;55.904;13.396;2023-04-16T01:15:44;14.40;;;11.70;;
13421;SDS011;6782;55.904;13.396;2023-04-16T01:18:12;11.77;;;10.37;;
13421;SDS011;6782;55.904;13.396;2023-04-16T01:20:40;14.53;;;11.80;;
13421;SDS011;6782;55.904;13.396;2023-04-16T01:23:07;13.53;;;10.07;;
13421;SDS011;6782;55.904;13.396;2023-04-16T01:25:34;13.43;;;10.93;;
13421;SDS011;6782;55.904;13.396;2023-04-16T01:28:01;12.20;;;10.90;;
13421;SDS011;6782;55.904;13.396;2023-04-16T01:30:29;12.10;;;10.83;;
13421;SDS011;6782;55.904;13.396;2023-04-16T01:32:56;12.63;;;11.33;;
13421;SDS011;6782;55.904;13.396;2023-04-16T01:35:23;13.00;;;11.67;;
13421;SDS011;6782;55.904;13.396;2023-04-16T01:37:52;12.73;;;11.53;;
13421;SDS011;6782;55.904;13.396;2023-04-16T01:40:19;13.47;;;11.30;;
13421;SDS011;6782;55.904;13.396;2023-04-16T01:42:45;11.93;;;10.63;;
13421;SDS011;6782;55.904;13.396;2023-04-16T01:45:12;13.13;;;11.40;;
13421;SDS011;6782;55.904;13.396;2023-04-16T01:47:39;12.97;;;11.53;;
13421;SDS011;6782;55.904;13.396;2023-04-16T01:50:07;13.07;;;10.97;;
13421;SDS011;6782;55.904;13.396;2023-04-16T01:52:34;13.27;;;11.37;;
13421;SDS011;6782;55.904;13.396;2023-04-16T01:55:02;12.30;;;11.03;;
13421;SDS011;6782;55.904;13.396;2023-04-16T01:57:30;13.97;;;12.40;;
13421;SDS011;6782;55.904;13.396;2023-04-16T01:59:56;12.67;;;11.37;;
13421;SDS011;6782;55.904;13.396;2023-04-16T02:02:23;14.13;;;11.10;;
13421;SDS011;6782;55.904;13.396;2023-04-16T02:04:52;13.13;;;10.50;;
13421;SDS011;6782;55.904;13.396;2023-04-16T02:07:19;13.67;;;11.13;;
13421;SDS011;6782;55.904;13.396;2023-04-16T02:09:46;12.40;;;11.10;;
13421;SDS011;6782;55.904;13.396;2023-04-16T02:12:16;12.70;;;11.47;;
13421;SDS011;6782;55.904;13.396;2023-04-16T02:14:44;12.40;;;11.10;;
13421;SDS011;6782;55.904;13.396;2023-04-16T02:17:11;12.53;;;11.43;;
13421;SDS011;6782;55.904;13.396;2023-04-16T02:19:40;12.77;;;11.57;;
13421;SDS011;6782;55.904;13.396;2023-04-16T02:22:07;12.13;;;10.83;;
13421;SDS011;6782;55.904;13.396;2023-04-16T02:24:34;12.13;;;10.73;;
13421;SDS011;6782;55.904;13.396;2023-04-16T02:27:01;12.73;;;11.43;;
13421;SDS011;6782;55.904;13.396;2023-04-16T02:29:29;12.27;;;10.73;;
13421;SDS011;6782;55.904;13.396;2023-04-16T02:31:56;11.70;;;10.63;;
13421;SDS011;6782;55.904;13.396;2023-04-16T02:34:24;12.10;;;10.93;;
13421;SDS011;6782;55.904;13.396;2023-04-16T02:36:50;12.70;;;10.67;;
13421;SDS011;6782;55.904;13.396;2023-04-16T02:39:18;11.50;;;10.07;;
13421;SDS011;6782;55.904;13.396;2023-04-16T02:41:45;12.13;;;10.50;;
13421;SDS011;6782;55.904;13.396;2023-04-16T02:44:12;11.27;;;10.03;;
13421;SDS011;6782;55.904;13.396;2023-04-16T02:46:41;11.40;;;10.10;;
13421;SDS011;6782;55.904;13.396;2023-04-16T02:49:08;11.33;;;10.33;;
13421;SDS011;6782;55.904;13.396;2023-04-16T02:51:35;11.07;;;9.60;;
13421;SDS011;6782;55.904;13.396;2023-04-16T02:54:01;10.13;;;9.23;;
13421;SDS011;6782;55.904;13.396;2023-04-16T02:56:28;12.97;;;10.17;;
13421;SDS011;6782;55.904;13.396;2023-04-16T02:58:55;11.17;;;9.77;;
13421;SDS011;6782;55.904;13.396;2023-04-16T03:01:22;11.60;;;10.43;;
13421;SDS011;6782;55.904;13.396;2023-04-16T03:03:51;12.93;;;10.30;;
13421;SDS011;6782;55.904;13.396;2023-04-16T03:06:17;10.93;;;9.83;;
13421;SDS011;6782;55.904;13.396;2023-04-16T03:08:44;11.10;;;9.97;;
13421;SDS011;6782;55.904;13.396;2023-04-16T03:11:11;10.80;;;9.80;;
13421;SDS011;6782;55.904;13.396;2023-04-16T03:13:37;10.30;;;9.27;;
13421;SDS011;6782;55.904;13.396;2023-04-16T03:16:04;12.23;;;10.20;;
13421;SDS011;6782;55.904;13.396;2023-04-16T03:18:31;11.20;;;9.27;;
13421;SDS011;6782;55.904;13.396;2023-04-16T03:20:59;11.73;;;9.33;;
13421;SDS011;6782;55.904;13.396;2023-04-16T03:23:26;11.63;;;10.43;;
13421;SDS011;6782;55.904;13.396;2023-04-16T03:25:53;10.17;;;9.17;;
13421;SDS011;6782;55.904;13.396;2023-04-16T03:28:20;10.97;;;9.87;;
13421;SDS011;6782;55.904;13.396;2023-04-16T03:30:50;10.80;;;9.70;;
13421;SDS011;6782;55.904;13.396;2023-04-16T03:33:18;11.03;;;10.03;;
13421;SDS011;6782;55.904;13.396;2023-04-16T03:35:44;10.87;;;9.80;;
13421;SDS011;6782;55.904;13.396;2023-04-16T03:38:13;10.90;;;9.83;;
13421;SDS011;6782;55.904;13.396;2023-04-16T03:40:40;10.97;;;9.83;;
13421;SDS011;6782;55.904;13.396;2023-04-16T03:43:07;11.43;;;9.97;;
13421;SDS011;6782;55.904;13.396;2023-04-16T03:45:34;10.63;;;9.63;;
13421;SDS011;6782;55.904;13.396;2023-04-16T03:48:01;11.67;;;9.20;;
13421;SDS011;6782;55.904;13.396;2023-04-16T03:50:28;10.53;;;9.50;;
13421;SDS011;6782;55.904;13.396;2023-04-16T03:52:55;11.67;;;10.47;;
13421;SDS011;6782;55.904;13.396;2023-04-16T03:55:24;10.63;;;9.30;;
13421;SDS011;6782;55.904;13.396;2023-04-16T03:57:51;10.63;;;9.63;;
13421;SDS011;6782;55.904;13.396;2023-04-16T04:00:18;10.33;;;9.33;;
13421;SDS011;6782;55.904;13.396;2023-04-16T04:02:45;9.90;;;8.90;;
13421;SDS011;6782;55.904;13.396;2023-04-16T04:05:12;11.33;;;10.07;;
13421;SDS011;6782;55.904;13.396;2023-04-16T04:07:39;10.37;;;9.30;;
13421;SDS011;6782;55.904;13.396;2023-04-16T04:10:07;10.23;;;9.23;;
13421;SDS011;6782;55.904;13.396;2023-04-16T04:12:35;9.70;;;8.70;;
13421;SDS011;6782;55.904;13.396;2023-04-16T04:15:03;11.53;;;9.73;;
13421;SDS011;6782;55.904;13.396;2023-04-16T04:17:30;10.97;;;9.87;;
13421;SDS011;6782;55.904;13.396;2023-04-16T04:19:57;10.57;;;9.17;;
13421;SDS011;6782;55.904;13.396;2023-04-16T04:22:34;10.43;;;9.17;;
13421;SDS011;6782;55.904;13.396;2023-04-16T04:25:01;10.37;;;9.00;;
13421;SDS011;6782;55.904;13.396;2023-04-16T04:27:28;10.17;;;8.10;;
13421;SDS011;6782;55.904;13.396;2023-04-16T04:30:02;11.13;;;9.07;;
13421;SDS011;6782;55.904;13.396;2023-04-16T04:32:29;9.97;;;8.97;;
13421;SDS011;6782;55.904;13.396;2023-04-16T04:34:57;9.70;;;8.80;;
13421;SDS011;6782;55.904;13.396;2023-04-16T04:37:24;11.90;;;9.30;;
13421;SDS011;6782;55.904;13.396;2023-04-16T04:39:51;10.17;;;9.07;;
13421;SDS011;6782;55.904;13.396;2023-04-16T04:42:19;10.13;;;9.13;;
13421;SDS011;6782;55.904;13.396;2023-04-16T04:44:46;9.90;;;8.73;;
13421;SDS011;6782;55.904;13.396;2023-04-16T04:47:15;9.53;;;8.63;;
13421;SDS011;6782;55.904;13.396;2023-04-16T04:49:42;10.27;;;8.80;;
13421;SDS011;6782;55.904;13.396;2023-04-16T04:52:09;9.10;;;8.27;;
13421;SDS011;6782;55.904;13.396;2023-04-16T04:54:36;9.30;;;8.30;;
13421;SDS011;6782;55.904;13.396;2023-04-16T04:57:05;9.77;;;8.40;;
13421;SDS011;6782;55.904;13.396;2023-04-16T04:59:32;10.70;;;7.97;;
13421;SDS011;6782;55.904;13.396;2023-04-16T05:01:59;10.30;;;8.73;;
13421;SDS011;6782;55.904;13.396;2023-04-16T05:04:29;9.80;;;8.70;;
13421;SDS011;6782;55.904;13.396;2023-04-16T05:06:55;10.00;;;7.97;;
13421;SDS011;6782;55.904;13.396;2023-04-16T05:09:22;9.87;;;8.67;;
13421;SDS011;6782;55.904;13.396;2023-04-16T05:11:49;9.70;;;8.67;;
13421;SDS011;6782;55.904;13.396;2023-04-16T05:14:16;9.97;;;8.30;;
13421;SDS011;6782;55.904;13.396;2023-04-16T05:16:42;9.30;;;8.40;;
13421;SDS011;6782;55.904;13.396;2023-04-16T05:19:09;9.70;;;8.73;;
13421;SDS011;6782;55.904;13.396;2023-04-16T05:21:37;10.43;;;8.90;;
13421;SDS011;6782;55.904;13.396;2023-04-16T05:24:05;10.43;;;8.57;;
13421;SDS011;6782;55.904;13.396;2023-04-16T05:26:32;8.83;;;7.63;;
13421;SDS011;6782;55.904;13.396;2023-04-16T05:28:58;12.43;;;8.33;;
13421;SDS011;6782;55.904;13.396;2023-04-16T05:31:25;8.87;;;7.97;;
13421;SDS011;6782;55.904;13.396;2023-04-16T05:33:52;8.87;;;7.93;;
13421;SDS011;6782;55.904;13.396;2023-04-16T05:36:18;9.37;;;8.37;;
13421;SDS011;6782;55.904;13.396;2023-04-16T05:38:46;8.63;;;7.73;;
13421;SDS011;6782;55.904;13.396;2023-04-16T05:41:13;9.33;;;8.17;;
13421;SDS011;6782;55.904;13.396;2023-04-16T05:43:40;9.83;;;7.87;;
13421;SDS011;6782;55.904;13.396;2023-04-16T05:46:08;9.00;;;7.63;;
13421;SDS011;6782;55.904;13.396;2023-04-16T05:48:35;11.63;;;8.07;;
13421;SDS011;6782;55.904;13.396;2023-04-16T05:51:02;8.97;;;7.87;;
13421;SDS011;6782;55.904;13.396;2023-04-16T05:53:29;10.47;;;8.07;;
13421;SDS011;6782;55.904;13.396;2023-04-16T05:56:14;10.20;;;8.37;;
13421;SDS011;6782;55.904;13.396;2023-04-16T05:58:41;8.90;;;7.97;;
13421;SDS011;6782;55.904;13.396;2023-04-16T06:01:09;9.20;;;8.30;;
13421;SDS011;6782;55.904;13.396;2023-04-16T06:03:37;12.23;;;8.53;;
13421;SDS011;6782;55.904;13.396;2023-04-16T06:06:05;10.23;;;8.50;;
13421;SDS011;6782;55.904;13.396;2023-04-16T06:08:33;10.07;;;8.30;;
13421;SDS011;6782;55.904;13.396;2023-04-16T06:11:00;9.73;;;8.27;;
13421;SDS011;6782;55.904;13.396;2023-04-16T06:13:29;8.63;;;7.70;;
13421;SDS011;6782;55.904;13.396;2023-04-16T06:15:56;9.57;;;8.53;;
13421;SDS011;6782;55.904;13.396;2023-04-16T06:18:23;10.13;;;8.23;;
13421;SDS011;6782;55.904;13.396;2023-04-16T06:20:50;8.73;;;7.87;;
13421;SDS011;6782;55.904;13.396;2023-04-16T06:23:20;8.87;;;7.93;;
13421;SDS011;6782;55.904;13.396;2023-04-16T06:25:46;9.73;;;8.40;;
13421;SDS011;6782;55.904;13.396;2023-04-16T06:28:13;9.47;;;8.47;;
13421;SDS011;6782;55.904;13.396;2023-04-16T06:30:41;9.10;;;8.20;;
13421;SDS011;6782;55.904;13.396;2023-04-16T06:33:09;9.30;;;8.37;;
13421;SDS011;6782;55.904;13.396;2023-04-16T06:35:35;8.60;;;7.80;;
13421;SDS011;6782;55.904;13.396;2023-04-16T06:38:02;9.37;;;8.37;;
13421;SDS011;6782;55.904;13.396;2023-04-16T06:40:29;8.77;;;7.87;;
13421;SDS011;6782;55.904;13.396;2023-04-16T06:42:57;9.43;;;7.73;;
13421;SDS011;6782;55.904;13.396;2023-04-16T06:45:24;9.10;;;8.13;;
13421;SDS011;6782;55.904;13.396;2023-04-16T06:47:53;8.77;;;7.33;;
13421;SDS011;6782;55.904;13.396;2023-04-16T06:50:20;10.53;;;8.03;;
13421;SDS011;6782;55.904;13.396;2023-04-16T06:52:47;10.40;;;8.17;;
13421;SDS011;6782;55.904;13.396;2023-04-16T06:55:15;9.80;;;7.83;;
13421;SDS011;6782;55.904;13.396;2023-04-16T06:57:41;9.10;;;7.40;;
13421;SDS011;6782;55.904;13.396;2023-04-16T07:00:08;9.63;;;7.83;;
13421;SDS011;6782;55.904;13.396;2023-04-16T07:02:36;9.40;;;7.57;;
13421;SDS011;6782;55.904;13.396;2023-04-16T07:05:04;11.73;;;7.83;;
13421;SDS011;6782;55.904;13.396;2023-04-16T07:07:31;8.63;;;7.63;;
13421;SDS011;6782;55.904;13.396;2023-04-16T07:09:57;10.10;;;7.13;;
13421;SDS011;6782;55.904;13.396;2023-04-16T07:12:24;9.70;;;8.40;;
13421;SDS011;6782;55.904;13.396;2023-04-16T07:14:51;9.40;;;7.63;;
13421;SDS011;6782;55.904;13.396;2023-04-16T07:17:17;9.07;;;7.40;;
13421;SDS011;6782;55.904;13.396;2023-04-16T07:19:45;8.90;;;7.27;;
13421;SDS011;6782;55.904;13.396;2023-04-16T07:22:13;9.63;;;7.30;;
13421;SDS011;6782;55.904;13.396;2023-04-16T07:24:40;10.10;;;7.50;;
13421;SDS011;6782;55.904;13.396;2023-04-16T07:27:07;8.53;;;7.73;;
13421;SDS011;6782;55.904;13.396;2023-04-16T07:29:34;9.37;;;7.23;;
13421;SDS011;6782;55.904;13.396;2023-04-16T07:32:01;7.97;;;7.07;;
13421;SDS011;6782;55.904;13.396;2023-04-16T07:34:28;8.20;;;7.03;;
13421;SDS011;6782;55.904;13.396;2023-04-16T07:36:55;8.50;;;7.50;;
13421;SDS011;6782;55.904;13.396;2023-04-16T07:39:23;12.40;;;7.57;;
13421;SDS011;6782;55.904;13.396;2023-04-16T07:41:50;9.77;;;7.63;;
13421;SDS011;6782;55.904;13.396;2023-04-16T07:44:18;9.37;;;7.23;;
13421;SDS011;6782;55.904;13.396;2023-04-16T07:46:44;9.00;;;7.10;;
13421;SDS011;6782;55.904;13.396;2023-04-16T07:49:11;9.00;;;7.83;;
13421;SDS011;6782;55.904;13.396;2023-04-16T07:51:39;8.73;;;7.20;;
13421;SDS011;6782;55.904;13.396;2023-04-16T07:54:06;10.33;;;7.43;;
13421;SDS011;6782;55.904;13.396;2023-04-16T07:56:35;8.47;;;7.60;;
13421;SDS011;6782;55.904;13.396;2023-04-16T07:59:02;9.13;;;8.10;;
13421;SDS011;6782;55.904;13.396;2023-04-16T08:01:28;9.30;;;7.47;;
13421;SDS011;6782;55.904;13.396;2023-04-16T08:03:55;10.47;;;7.63;;
13421;SDS011;6782;55.904;13.396;2023-04-16T08:06:23;10.53;;;7.57;;
13421;SDS011;6782;55.904;13.396;2023-04-16T08:08:51;7.57;;;6.83;;
13421;SDS011;6782;55.904;13.396;2023-04-16T08:11:18;7.47;;;6.67;;
13421;SDS011;6782;55.904;13.396;2023-04-16T08:13:47;8.93;;;6.93;;
13421;SDS011;6782;55.904;13.396;2023-04-16T08:16:15;10.60;;;7.27;;
13421;SDS011;6782;55.904;13.396;2023-04-16T08:18:42;7.90;;;7.10;;
13421;SDS011;6782;55.904;13.396;2023-04-16T08:21:10;9.43;;;6.87;;
13421;SDS011;6782;55.904;13.396;2023-04-16T08:23:38;9.73;;;7.20;;
13421;SDS011;6782;55.904;13.396;2023-04-16T08:26:05;8.20;;;7.30;;
13421;SDS011;6782;55.904;13.396;2023-04-16T08:28:31;7.43;;;6.73;;
13421;SDS011;6782;55.904;13.396;2023-04-16T08:30:59;8.73;;;7.70;;
13421;SDS011;6782;55.904;13.396;2023-04-16T08:33:26;9.77;;;7.17;;
13421;SDS011;6782;55.904;13.396;2023-04-16T08:35:53;8.70;;;7.53;;
13421;SDS011;6782;55.904;13.396;2023-04-16T08:38:19;9.97;;;7.20;;
13421;SDS011;6782;55.904;13.396;2023-04-16T08:40:46;8.77;;;7.67;;
13421;SDS011;6782;55.904;13.396;2023-04-16T08:43:13;8.77;;;7.13;;
13421;SDS011;6782;55.904;13.396;2023-04-16T08:45:41;8.03;;;6.90;;
13421;SDS011;6782;55.904;13.396;2023-04-16T08:48:09;8.73;;;6.87;;
13421;SDS011;6782;55.904;13.396;2023-04-16T08:50:36;7.67;;;6.87;;
13421;SDS011;6782;55.904;13.396;2023-04-16T08:53:04;8.90;;;7.10;;
13421;SDS011;6782;55.904;13.396;2023-04-16T08:55:34;7.97;;;6.90;;
13421;SDS011;6782;55.904;13.396;2023-04-16T08:58:02;8.30;;;7.47;;
13421;SDS011;6782;55.904;13.396;2023-04-16T09:00:29;8.30;;;7.47;;
13421;SDS011;6782;55.904;13.396;2023-04-16T09:02:57;8.67;;;7.73;;
13421;SDS011;6782;55.904;13.396;2023-04-16T09:05:25;9.47;;;7.37;;
13421;SDS011;6782;55.904;13.396;2023-04-16T09:07:52;8.33;;;6.87;;
13421;SDS011;6782;55.904;13.396;2023-04-16T09:10:19;10.13;;;7.27;;
13421;SDS011;6782;55.904;13.396;2023-04-16T09:12:46;9.83;;;7.63;;
13421;SDS011;6782;55.904;13.396;2023-04-16T09:15:13;9.07;;;7.27;;
13421;SDS011;6782;55.904;13.396;2023-04-16T09:17:40;11.83;;;6.67;;
13421;SDS011;6782;55.904;13.396;2023-04-16T09:20:07;8.80;;;6.70;;
13421;SDS011;6782;55.904;13.396;2023-04-16T09:22:37;7.50;;;6.70;;
13421;SDS011;6782;55.904;13.396;2023-04-16T09:25:04;8.73;;;7.00;;
13421;SDS011;6782;55.904;13.396;2023-04-16T09:27:32;9.20;;;6.67;;
13421;SDS011;6782;55.904;13.396;2023-04-16T09:29:59;7.77;;;6.93;;
13421;SDS011;6782;55.904;13.396;2023-04-16T09:32:27;10.87;;;7.70;;
13421;SDS011;6782;55.904;13.396;2023-04-16T09:34:58;7.37;;;6.60;;
13421;SDS011;6782;55.904;13.396;2023-04-16T09:37:26;9.77;;;7.17;;
13421;SDS011;6782;55.904;13.396;2023-04-16T09:39:56;8.93;;;6.90;;
13421;SDS011;6782;55.904;13.396;2023-04-16T09:42:23;8.40;;;6.90;;
13421;SDS011;6782;55.904;13.396;2023-04-16T09:44:51;9.83;;;7.17;;
13421;SDS011;6782;55.904;13.396;2023-04-16T09:47:18;8.43;;;6.70;;
13421;SDS011;6782;55.904;13.396;2023-04-16T09:49:44;10.80;;;7.07;;
13421;SDS011;6782;55.904;13.396;2023-04-16T09:52:12;10.83;;;6.80;;
13421;SDS011;6782;55.904;13.396;2023-04-16T09:54:44;8.43;;;6.57;;
13421;SDS011;6782;55.904;13.396;2023-04-16T09:57:12;9.27;;;6.67;;
13421;SDS011;6782;55.904;13.396;2023-04-16T09:59:39;6.63;;;6.03;;
13421;SDS011;6782;55.904;13.396;2023-04-16T10:02:06;9.23;;;7.03;;
13421;SDS011;6782;55.904;13.396;2023-04-16T10:04:43;10.83;;;6.57;;
13421;SDS011;6782;55.904;13.396;2023-04-16T10:07:10;8.03;;;7.10;;
13421;SDS011;6782;55.904;13.396;2023-04-16T10:09:37;10.50;;;6.53;;
13421;SDS011;6782;55.904;13.396;2023-04-16T10:12:05;9.13;;;6.10;;
13421;SDS011;6782;55.904;13.396;2023-04-16T10:14:34;7.80;;;6.30;;
13421;SDS011;6782;55.904;13.396;2023-04-16T10:17:01;7.20;;;5.67;;
13421;SDS011;6782;55.904;13.396;2023-04-16T10:19:28;9.50;;;6.80;;
13421;SDS011;6782;55.904;13.396;2023-04-16T10:21:56;8.33;;;6.53;;
13421;SDS011;6782;55.904;13.396;2023-04-16T15:34:49;5.07;;;3.92;;
13421;SDS011;6782;55.904;13.396;2023-04-16T15:37:17;5.47;;;3.92;;
13421;SDS011;6782;55.904;13.396;2023-04-16T15:39:44;3.95;;;3.53;;
13421;SDS011;6782;55.904;13.396;2023-04-16T15:42:11;5.13;;;3.85;;
13421;SDS011;6782;55.904;13.396;2023-04-16T15:44:38;5.65;;;4.15;;
13421;SDS011;6782;55.904;13.396;2023-04-16T15:47:05;4.57;;;4.18;;
13421;SDS011;6782;55.904;13.396;2023-04-16T15:49:33;5.43;;;4.50;;
13421;SDS011;6782;55.904;13.396;2023-04-16T15:52:01;4.60;;;3.55;;
13421;SDS011;6782;55.904;13.396;2023-04-16T15:54:29;4.40;;;3.58;;
13421;SDS011;6782;55.904;13.396;2023-04-16T15:57:14;4.45;;;4.05;;
13421;SDS011;6782;55.904;13.396;2023-04-16T16:00:03;6.35;;;4.28;;
13421;SDS011;6782;55.904;13.396;2023-04-16T16:02:57;4.47;;;3.67;;
13421;SDS011;6782;55.904;13.396;2023-04-16T16:05:45;5.40;;;3.67;;
13421;SDS011;6782;55.904;13.396;2023-04-16T16:08:34;4.10;;;3.70;;
13421;SDS011;6782;55.904;13.396;2023-04-16T16:11:22;4.70;;;3.60;;
13421;SDS011;6782;55.904;13.396;2023-04-16T16:14:09;4.40;;;3.35;;
13421;SDS011;6782;55.904;13.396;2023-04-16T16:16:56;6.45;;;3.25;;
13421;SDS011;6782;55.904;13.396;2023-04-16T16:19:44;3.05;;;2.85;;
13421;SDS011;6782;55.904;13.396;2023-04-16T16:22:32;4.82;;;3.17;;
13421;SDS011;6782;55.904;13.396;2023-04-16T16:25:20;4.45;;;3.08;;
13421;SDS011;6782;55.904;13.396;2023-04-16T16:28:07;3.72;;;3.20;;
13421;SDS011;6782;55.904;13.396;2023-04-16T16:30:54;3.10;;;2.78;;
13421;SDS011;6782;55.904;13.396;2023-04-16T16:33:43;3.47;;;3.03;;
13421;SDS011;6782;55.904;13.396;2023-04-16T16:36:30;2.80;;;2.47;;
13421;SDS011;6782;55.904;13.396;2023-04-16T16:39:07;4.63;;;2.93;;
13421;SDS011;6782;55.904;13.396;2023-04-16T16:41:36;4.20;;;2.95;;
13421;SDS011;6782;55.904;13.396;2023-04-16T16:44:06;3.55;;;3.05;;
13421;SDS011;6782;55.904;13.396;2023-04-16T16:46:33;3.35;;;3.05;;
13421;SDS011;6782;55.904;13.396;2023-04-16T16:49:00;3.38;;;3.08;;
13421;SDS011;6782;55.904;13.396;2023-04-16T16:51:29;4.68;;;3.00;;
13421;SDS011;6782;55.904;13.396;2023-04-16T16:53:57;4.90;;;3.33;;
13421;SDS011;6782;55.904;13.396;2023-04-16T16:56:24;3.42;;;3.05;;
13421;SDS011;6782;55.904;13.396;2023-04-16T16:58:54;3.50;;;3.17;;
13421;SDS011;6782;55.904;13.396;2023-04-16T17:01:21;4.70;;;3.27;;
13421;SDS011;6782;55.904;13.396;2023-04-16T17:03:50;5.82;;;3.25;;
13421;SDS011;6782;55.904;13.396;2023-04-16T17:06:18;3.50;;;3.13;;
13421;SDS011;6782;55.904;13.396;2023-04-16T17:08:46;5.20;;;3.50;;
13421;SDS011;6782;55.904;13.396;2023-04-16T17:11:14;3.65;;;3.33;;
13421;SDS011;6782;55.904;13.396;2023-04-16T17:13:41;4.38;;;3.50;;
13421;SDS011;6782;55.904;13.396;2023-04-16T17:16:10;4.28;;;3.15;;
13421;SDS011;6782;55.904;13.396;2023-04-16T17:18:38;4.00;;;3.03;;
13421;SDS011;6782;55.904;13.396;2023-04-16T17:21:05;4.68;;;3.20;;
13421;SDS011;6782;55.904;13.396;2023-04-16T17:23:32;8.10;;;3.85;;
13421;SDS011;6782;55.904;13.396;2023-04-16T17:25:59;5.97;;;3.30;;
13421;SDS011;6782;55.904;13.396;2023-04-16T17:28:27;4.07;;;2.90;;
13421;SDS011;6782;55.904;13.396;2023-04-16T17:30:54;4.23;;;3.40;;
13421;SDS011;6782;55.904;13.396;2023-04-16T17:33:23;6.20;;;3.53;;
13421;SDS011;6782;55.904;13.396;2023-04-16T17:35:50;3.93;;;3.00;;
13421;SDS011;6782;55.904;13.396;2023-04-16T17:38:18;3.73;;;3.27;;
13421;SDS011;6782;55.904;13.396;2023-04-16T17:40:45;7.43;;;3.43;;
13421;SDS011;6782;55.904;13.396;2023-04-16T17:43:12;4.10;;;3.53;;
13421;SDS011;6782;55.904;13.396;2023-04-16T17:45:39;4.53;;;3.47;;
13421;SDS011;6782;55.904;13.396;2023-04-16T17:48:07;3.80;;;3.50;;
13421;SDS011;6782;55.904;13.396;2023-04-16T17:50:35;4.73;;;3.50;;
13421;SDS011;6782;55.904;13.396;2023-04-16T17:53:02;6.03;;;3.83;;
13421;SDS011;6782;55.904;13.396;2023-04-16T17:55:30;5.07;;;3.57;;
13421;SDS011;6782;55.904;13.396;2023-04-16T17:58:13;4.67;;;4.07;;
13421;SDS011;6782;55.904;13.396;2023-04-16T18:00:40;5.27;;;3.53;;
13421;SDS011;6782;55.904;13.396;2023-04-16T18:03:11;4.10;;;3.77;;
13421;SDS011;6782;55.904;13.396;2023-04-16T18:05:40;5.43;;;4.27;;
13421;SDS011;6782;55.904;13.396;2023-04-16T18:08:06;5.47;;;4.20;;
13421;SDS011;6782;55.904;13.396;2023-04-16T18:10:34;5.97;;;4.60;;
13421;SDS011;6782;55.904;13.396;2023-04-16T18:13:01;6.07;;;4.70;;
13421;SDS011;6782;55.904;13.396;2023-04-16T18:15:28;8.10;;;5.47;;
13421;SDS011;6782;55.904;13.396;2023-04-16T18:17:54;6.50;;;4.80;;
13421;SDS011;6782;55.904;13.396;2023-04-16T18:20:21;5.57;;;4.83;;
13421;SDS011;6782;55.904;13.396;2023-04-16T18:22:50;6.53;;;4.67;;
13421;SDS011;6782;55.904;13.396;2023-04-16T18:25:17;6.60;;;5.10;;
13421;SDS011;6782;55.904;13.396;2023-04-16T18:27:45;6.23;;;5.30;;
13421;SDS011;6782;55.904;13.396;2023-04-16T18:30:12;6.47;;;5.77;;
13421;SDS011;6782;55.904;13.396;2023-04-16T18:32:39;8.13;;;5.60;;
13421;SDS011;6782;55.904;13.396;2023-04-16T18:35:18;7.23;;;6.53;;
13421;SDS011;6782;55.904;13.396;2023-04-16T18:37:46;7.77;;;5.90;;
13421;SDS011;6782;55.904;13.396;2023-04-16T18:40:15;6.07;;;5.57;;
13421;SDS011;6782;55.904;13.396;2023-04-16T18:42:54;6.53;;;5.73;;
13421;SDS011;6782;55.904;13.396;2023-04-16T18:45:21;6.37;;;5.77;;
13421;SDS011;6782;55.904;13.396;2023-04-16T18:47:48;7.40;;;6.20;;
13421;SDS011;6782;55.904;13.396;2023-04-16T18:50:16;10.10;;;6.33;;
13421;SDS011;6782;55.904;13.396;2023-04-16T18:52:44;6.97;;;6.27;;
13421;SDS011;6782;55.904;13.396;2023-04-16T18:55:11;7.67;;;6.70;;
13421;SDS011;6782;55.904;13.396;2023-04-16T18:57:40;7.97;;;7.13;;
13421;SDS011;6782;55.904;13.396;2023-04-16T19:00:07;7.33;;;6.53;;
13421;SDS011;6782;55.904;13.396;2023-04-16T19:02:37;9.63;;;6.53;;
13421;SDS011;6782;55.904;13.396;2023-04-16T19:05:05;10.00;;;7.20;;
13421;SDS011;6782;55.904;13.396;2023-04-16T19:07:33;7.37;;;6.67;;
13421;SDS011;6782;55.904;13.396;2023-04-16T19:10:01;8.87;;;6.70;;
13421;SDS011;6782;55.904;13.396;2023-04-16T19:12:29;7.80;;;7.00;;
13421;SDS011;6782;55.904;13.396;2023-04-16T19:15:00;9.37;;;6.60;;
13421;SDS011;6782;55.904;13.396;2023-04-16T19:17:28;8.43;;;7.13;;
13421;SDS011;6782;55.904;13.396;2023-04-16T19:19:55;9.63;;;6.97;;
13421;SDS011;6782;55.904;13.396;2023-04-16T19:22:23;8.90;;;7.17;;
13421;SDS011;6782;55.904;13.396;2023-04-16T19:24:50;8.03;;;6.73;;
13421;SDS011;6782;55.904;13.396;2023-04-16T19:27:19;8.07;;;6.53;;
13421;SDS011;6782;55.904;13.396;2023-04-16T19:29:45;7.13;;;6.43;;
13421;SDS011;6782;55.904;13.396;2023-04-16T19:32:14;8.70;;;7.83;;
13421;SDS011;6782;55.904;13.396;2023-04-16T19:34:41;7.90;;;7.13;;
13421;SDS011;6782;55.904;13.396;2023-04-16T19:37:08;7.80;;;6.97;;
13421;SDS011;6782;55.904;13.396;2023-04-16T19:39:36;8.17;;;7.37;;
13421;SDS011;6782;55.904;13.396;2023-04-16T19:42:03;7.73;;;6.63;;
13421;SDS011;6782;55.904;13.396;2023-04-16T19:44:42;8.60;;;7.43;;
13421;SDS011;6782;55.904;13.396;2023-04-16T19:47:09;10.00;;;7.07;;
13421;SDS011;6782;55.904;13.396;2023-04-16T19:49:38;7.00;;;6.40;;
13421;SDS011;6782;55.904;13.396;2023-04-16T19:52:07;8.73;;;6.43;;
13421;SDS011;6782;55.904;13.396;2023-04-16T19:54:40;7.40;;;6.47;;
13421;SDS011;6782;55.904;13.396;2023-04-16T19:57:08;7.13;;;6.23;;
13421;SDS011;6782;55.904;13.396;2023-04-16T19:59:35;7.10;;;6.40;;